Time;durP1;ratioP1;P1;durP2;ratioP2;P2;SDS_P1;SDS_P2;PMS_P1;PMS_P2;Temp;Humidity;BMP_temperature;BMP_pressure;BME280_temperature;BME280_humidity;BME280_pressure;Samples;Min_cycle;Max_cycle;Signal;HPM_P1;HPM_P2
2021/06/19 00:01:01;;;;;;;2.87;2.67;;;22.50;99.90;;;;;;4890846;29;20422;-75
2021/06/19 00:03:27;;;;;;;2.92;2.67;;;22.40;99.90;;;;;;4922535;29;20413;-73
2021/06/19 00:05:53;;;;;;;2.73;2.53;;;22.40;99.90;;;;;;4892809;29;20436;-75
2021/06/19 00:08:18;;;;;;;2.92;2.65;;;22.30;99.90;;;;;;4890802;29;20405;-77
2021/06/19 00:10:44;;;;;;;3.10;2.85;;;22.20;99.90;;;;;;4923531;29;20440;-76
2021/06/19 00:13:10;;;;;;;3.03;2.83;;;22.20;99.90;;;;;;4909825;29;20425;-76
2021/06/19 00:15:36;;;;;;;2.75;2.55;;;22.10;99.90;;;;;;4909524;29;20394;-76
2021/06/19 00:18:02;;;;;;;3.78;3.05;;;22.10;99.90;;;;;;4904770;29;20490;-76
2021/06/19 00:20:27;;;;;;;3.17;2.90;;;22.00;99.90;;;;;;4902470;29;20439;-74
2021/06/19 00:22:53;;;;;;;3.93;2.80;;;22.00;99.90;;;;;;4907556;29;20495;-74
2021/06/19 00:25:20;;;;;;;3.17;2.70;;;22.00;99.90;;;;;;4919065;29;20927;-77
2021/06/19 00:27:46;;;;;;;5.00;2.75;;;22.00;99.90;;;;;;4905339;29;20413;-77
2021/06/19 00:30:13;;;;;;;2.63;2.47;;;22.00;99.90;;;;;;4908117;29;20506;-76
2021/06/19 00:32:38;;;;;;;3.03;2.73;;;21.90;99.90;;;;;;4895718;29;21136;-74
2021/06/19 00:35:05;;;;;;;3.13;2.70;;;21.90;99.90;;;;;;4910358;29;20405;-74
2021/06/19 00:37:33;;;;;;;2.88;2.67;;;21.80;99.90;;;;;;4892722;29;20947;-75
2021/06/19 00:39:58;;;;;;;2.97;2.78;;;21.80;99.90;;;;;;4912440;29;20412;-75
2021/06/19 00:42:24;;;;;;;3.25;2.63;;;21.80;99.90;;;;;;4925487;29;20402;-74
2021/06/19 00:44:50;;;;;;;3.17;2.90;;;21.80;99.90;;;;;;4926597;28;20406;-75
2021/06/19 00:47:15;;;;;;;2.95;2.75;;;21.70;99.90;;;;;;4928787;29;20484;-74
2021/06/19 00:49:41;;;;;;;3.25;2.80;;;21.70;99.90;;;;;;4896110;29;20403;-74
2021/06/19 00:52:07;;;;;;;3.13;2.90;;;21.60;99.90;;;;;;4892072;29;20407;-74
2021/06/19 00:54:33;;;;;;;3.22;2.92;;;21.60;99.90;;;;;;4897005;29;20422;-74
2021/06/19 00:57:00;;;;;;;3.38;3.08;;;21.50;99.90;;;;;;4920978;28;20429;-73
2021/06/19 00:59:25;;;;;;;3.05;2.83;;;21.50;99.90;;;;;;4900327;28;20420;-74
2021/06/19 01:01:52;;;;;;;3.33;2.87;;;21.50;99.90;;;;;;4914159;29;20408;-73
2021/06/19 01:04:18;;;;;;;2.63;2.42;;;21.40;99.90;;;;;;4899356;29;20418;-74
2021/06/19 01:06:44;;;;;;;2.90;2.70;;;21.30;99.90;;;;;;4929172;29;20472;-75
2021/06/19 01:09:10;;;;;;;3.38;3.08;;;21.30;99.90;;;;;;4897580;29;20459;-76
2021/06/19 01:11:39;;;;;;;4.03;3.00;;;21.30;99.90;;;;;;4912147;28;20946;-77
2021/06/19 01:14:05;;;;;;;3.10;2.90;;;21.20;99.90;;;;;;4897714;29;20440;-76
2021/06/19 01:16:31;;;;;;;3.20;2.95;;;21.20;99.90;;;;;;4929771;29;20433;-76
2021/06/19 01:18:56;;;;;;;2.80;2.60;;;21.20;99.90;;;;;;4911823;29;20413;-76
2021/06/19 01:21:24;;;;;;;2.80;2.60;;;21.10;99.90;;;;;;4924310;28;20406;-76
2021/06/19 01:23:50;;;;;;;3.67;3.25;;;21.10;99.90;;;;;;4909171;29;20500;-76
2021/06/19 01:26:20;;;;;;;3.55;3.25;;;21.10;99.90;;;;;;4940394;29;20422;-76
2021/06/19 01:28:46;;;;;;;3.28;3.05;;;21.00;99.90;;;;;;4889623;29;20398;-76
2021/06/19 01:31:12;;;;;;;3.10;2.90;;;21.00;99.90;;;;;;4912276;29;20410;-76
2021/06/19 01:33:38;;;;;;;3.70;3.40;;;21.00;99.90;;;;;;4912510;29;20967;-75
2021/06/19 01:36:05;;;;;;;3.15;2.95;;;20.90;99.90;;;;;;4909586;29;20522;-76
2021/06/19 01:38:32;;;;;;;3.38;3.08;;;20.90;99.90;;;;;;4928317;29;20406;-76
2021/06/19 01:40:57;;;;;;;3.22;3.00;;;20.80;99.90;;;;;;4891124;29;20415;-76
2021/06/19 01:43:23;;;;;;;3.67;3.10;;;20.80;99.90;;;;;;4933649;29;20853;-77
2021/06/19 01:45:49;;;;;;;3.55;3.25;;;20.70;99.90;;;;;;4912969;28;20824;-76
2021/06/19 01:48:14;;;;;;;3.20;2.90;;;20.70;99.90;;;;;;4912544;29;20454;-76
2021/06/19 01:50:40;;;;;;;4.18;3.22;;;20.70;99.90;;;;;;4876802;29;20408;-76
2021/06/19 01:53:06;;;;;;;3.10;2.90;;;20.80;99.90;;;;;;4922742;29;20452;-76
2021/06/19 01:55:32;;;;;;;3.90;3.43;;;20.60;99.90;;;;;;4895266;29;20414;-76
2021/06/19 01:57:58;;;;;;;3.50;3.25;;;20.60;99.90;;;;;;4893680;29;20423;-76
2021/06/19 02:00:31;;;;;;;4.43;3.20;;;20.60;99.90;;;;;;4910865;29;20423;-76
2021/06/19 02:02:57;;;;;;;3.60;3.30;;;20.50;99.90;;;;;;4912037;29;20492;-76
2021/06/19 02:05:23;;;;;;;3.58;3.28;;;20.40;99.90;;;;;;4914016;29;20588;-77
2021/06/19 02:07:50;;;;;;;3.60;3.30;;;20.40;99.90;;;;;;4896108;29;20423;-77
2021/06/19 02:10:17;;;;;;;4.43;3.25;;;20.30;99.90;;;;;;4911867;28;20423;-76
2021/06/19 02:12:42;;;;;;;3.70;3.40;;;20.30;99.90;;;;;;4907572;28;20820;-77
2021/06/19 02:15:08;;;;;;;3.30;3.00;;;20.20;99.90;;;;;;4936932;29;20406;-77
2021/06/19 02:17:34;;;;;;;3.57;3.27;;;20.20;99.90;;;;;;4943138;28;20950;-77
2021/06/19 02:20:00;;;;;;;3.47;3.17;;;20.10;99.90;;;;;;4897576;29;20508;-77
2021/06/19 02:22:25;;;;;;;3.40;3.10;;;20.10;99.90;;;;;;4904670;29;20926;-76
2021/06/19 02:24:51;;;;;;;3.70;3.22;;;20.10;99.90;;;;;;4935636;28;20405;-77
2021/06/19 02:27:18;;;;;;;3.78;3.47;;;20.00;99.90;;;;;;4898010;29;20416;-76
2021/06/19 02:29:44;;;;;;;3.15;2.95;;;20.00;99.90;;;;;;4916899;29;20414;-76
2021/06/19 02:32:10;;;;;;;3.40;3.10;;;20.00;99.90;;;;;;4904929;29;20410;-77
2021/06/19 02:34:35;;;;;;;3.78;3.40;;;19.90;99.90;;;;;;4894316;28;20470;-77
2021/06/19 02:37:01;;;;;;;3.53;3.23;;;19.90;99.90;;;;;;4911323;29;20402;-76
2021/06/19 02:39:27;;;;;;;3.63;3.33;;;19.90;99.90;;;;;;4943841;28;20799;-77
2021/06/19 02:41:53;;;;;;;3.60;3.30;;;19.80;99.90;;;;;;4916166;29;20986;-76
2021/06/19 02:44:18;;;;;;;3.63;3.33;;;19.80;99.90;;;;;;4909715;29;20408;-76
2021/06/19 02:46:44;;;;;;;3.43;3.13;;;19.80;99.90;;;;;;4910849;29;20987;-76
2021/06/19 02:49:10;;;;;;;3.83;3.42;;;19.70;99.90;;;;;;4895343;29;20401;-76
2021/06/19 02:51:35;;;;;;;3.85;3.55;;;19.70;99.90;;;;;;4912757;29;20407;-76
2021/06/19 02:54:01;;;;;;;3.80;3.50;;;19.60;99.90;;;;;;4894160;28;20422;-77
2021/06/19 02:56:27;;;;;;;4.47;3.63;;;19.60;99.90;;;;;;4912668;29;20474;-76
2021/06/19 02:58:52;;;;;;;3.57;3.27;;;19.60;99.90;;;;;;4922587;28;20417;-77
2021/06/19 03:01:18;;;;;;;3.47;3.17;;;19.60;99.90;;;;;;4913008;28;20418;-75
2021/06/19 03:03:44;;;;;;;4.07;3.67;;;19.60;99.90;;;;;;4897446;29;20406;-75
2021/06/19 03:06:09;;;;;;;4.33;3.60;;;19.60;99.90;;;;;;4911022;28;20489;-76
2021/06/19 03:08:35;;;;;;;6.07;3.65;;;19.60;99.90;;;;;;4894922;29;20813;-76
2021/06/19 03:11:01;;;;;;;3.60;3.30;;;19.60;99.90;;;;;;4904252;28;20481;-76
2021/06/19 03:13:27;;;;;;;3.30;3.10;;;19.60;99.90;;;;;;4914991;29;20410;-75
2021/06/19 03:15:53;;;;;;;3.73;3.43;;;19.50;99.90;;;;;;4913576;29;20404;-76
2021/06/19 03:18:18;;;;;;;3.40;3.20;;;19.50;99.90;;;;;;4942536;29;20413;-77
2021/06/19 03:20:44;;;;;;;4.20;3.90;;;19.50;99.90;;;;;;4893854;29;20410;-76
2021/06/19 03:23:10;;;;;;;3.63;3.30;;;19.50;99.90;;;;;;4886445;29;20973;-75
2021/06/19 03:25:37;;;;;;;3.80;3.50;;;19.60;99.90;;;;;;4919709;29;20417;-75
2021/06/19 03:28:04;;;;;;;3.65;3.35;;;19.60;99.90;;;;;;4922897;29;20418;-76
2021/06/19 03:30:31;;;;;;;3.28;3.00;;;19.60;99.90;;;;;;4913984;28;20420;-75
2021/06/19 03:32:57;;;;;;;4.03;3.63;;;19.60;99.90;;;;;;4915930;29;20429;-76
2021/06/19 03:35:23;;;;;;;3.88;3.40;;;19.70;99.90;;;;;;4892117;29;20798;-76
2021/06/19 03:37:50;;;;;;;3.88;3.58;;;19.70;99.90;;;;;;4924293;28;20812;-76
2021/06/19 03:40:16;;;;;;;3.40;3.10;;;19.80;99.90;;;;;;4911832;29;20415;-77
2021/06/19 03:42:42;;;;;;;4.07;3.70;;;19.90;99.90;;;;;;4905216;29;20464;-77
2021/06/19 03:45:08;;;;;;;3.75;3.45;;;19.90;99.90;;;;;;4927063;28;20432;-75
2021/06/19 03:47:34;;;;;;;3.53;3.30;;;20.00;99.90;;;;;;4918716;29;20833;-76
2021/06/19 03:50:00;;;;;;;3.83;3.50;;;20.00;99.90;;;;;;4927415;29;20430;-76
2021/06/19 03:52:25;;;;;;;3.60;3.30;;;20.10;99.90;;;;;;4894312;29;20421;-76
2021/06/19 03:54:52;;;;;;;3.40;3.10;;;20.20;99.90;;;;;;4895460;29;20422;-76
2021/06/19 03:57:27;;;;;;;3.53;3.22;;;20.30;99.90;;;;;;4926953;29;20410;-76
2021/06/19 03:59:54;;;;;;;3.70;3.40;;;20.40;99.90;;;;;;4913434;29;20408;-76
2021/06/19 04:02:19;;;;;;;3.55;3.25;;;20.50;99.90;;;;;;4912189;29;20406;-76
2021/06/19 04:04:46;;;;;;;3.58;3.28;;;20.60;99.90;;;;;;4910832;29;20410;-76
2021/06/19 04:07:12;;;;;;;3.80;3.50;;;20.70;99.90;;;;;;4892802;29;20446;-77
2021/06/19 04:09:38;;;;;;;3.60;3.33;;;20.70;99.90;;;;;;4910734;29;20445;-76
2021/06/19 04:12:04;;;;;;;3.50;3.20;;;20.80;99.90;;;;;;4926786;29;20449;-76
2021/06/19 04:14:30;;;;;;;3.28;3.08;;;20.90;99.90;;;;;;4906113;29;21018;-74
2021/06/19 04:16:55;;;;;;;3.63;3.30;;;21.00;99.90;;;;;;4921906;29;20417;-74
2021/06/19 04:19:21;;;;;;;3.20;3.00;;;21.10;99.90;;;;;;4914762;29;20456;-74
2021/06/19 04:21:47;;;;;;;3.00;2.80;;;21.30;99.90;;;;;;4930295;29;20417;-73
2021/06/19 04:24:13;;;;;;;3.85;3.42;;;21.40;99.90;;;;;;4927478;29;20939;-76
2021/06/19 04:26:39;;;;;;;3.60;3.30;;;21.50;99.90;;;;;;4927873;29;20537;-77
2021/06/19 04:29:04;;;;;;;8.10;7.17;;;21.70;99.90;;;;;;4893962;29;20496;-76
2021/06/19 04:31:31;;;;;;;3.80;3.50;;;21.80;99.90;;;;;;4891570;29;20405;-76
2021/06/19 04:34:02;;;;;;;3.60;3.30;;;21.90;99.90;;;;;;4890144;29;20410;-77
2021/06/19 04:36:30;;;;;;;3.70;3.28;;;22.10;99.90;;;;;;4923041;29;20980;-78
2021/06/19 04:38:55;;;;;;;3.53;3.25;;;22.20;99.90;;;;;;4893447;29;20414;-76
2021/06/19 04:41:26;;;;;;;3.47;2.90;;;22.30;99.90;;;;;;4900105;29;20398;-76
2021/06/19 04:44:06;;;;;;;3.20;2.90;;;22.40;99.90;;;;;;4922742;29;20504;-74
2021/06/19 04:46:32;;;;;;;2.80;2.60;;;22.60;99.90;;;;;;4941111;29;20761;-73
2021/06/19 04:48:57;;;;;;;3.08;2.85;;;22.70;99.90;;;;;;4906606;29;20419;-73
2021/06/19 04:51:23;;;;;;;2.80;2.60;;;22.90;99.90;;;;;;4895871;29;20427;-73
2021/06/19 04:53:51;;;;;;;2.65;2.45;;;23.00;99.90;;;;;;4924991;29;20451;-75
2021/06/19 04:56:17;;;;;;;4.30;3.22;;;23.20;99.90;;;;;;4910444;29;20792;-75
2021/06/19 04:58:44;;;;;;;2.60;2.40;;;23.30;99.90;;;;;;4891491;29;20404;-75
2021/06/19 05:01:10;;;;;;;3.28;2.97;;;23.50;99.90;;;;;;4893339;28;20414;-75
2021/06/19 05:03:35;;;;;;;3.13;2.88;;;23.60;99.90;;;;;;4909472;29;20410;-77
2021/06/19 05:06:01;;;;;;;4.53;2.90;;;23.80;99.90;;;;;;4908711;29;20418;-75
2021/06/19 05:08:27;;;;;;;2.70;2.50;;;23.90;99.90;;;;;;4935474;28;20410;-75
2021/06/19 05:10:52;;;;;;;2.65;2.45;;;24.00;99.90;;;;;;4941567;29;20416;-75
2021/06/19 05:13:18;;;;;;;3.23;2.93;;;23.90;99.90;;;;;;4927095;28;21042;-75
2021/06/19 05:15:44;;;;;;;2.88;2.67;;;24.00;99.90;;;;;;4905202;29;20506;-75
2021/06/19 05:18:10;;;;;;;2.80;2.60;;;24.10;99.90;;;;;;4895848;29;20396;-75
2021/06/19 05:20:35;;;;;;;3.08;2.85;;;24.30;99.90;;;;;;4932200;28;20508;-76
2021/06/19 05:23:08;;;;;;;2.90;2.60;;;24.40;99.90;;;;;;4941760;28;20904;-76
2021/06/19 05:25:33;;;;;;;2.92;2.70;;;24.60;99.90;;;;;;4930561;29;20401;-75
2021/06/19 05:27:59;;;;;;;3.50;3.20;;;24.80;99.90;;;;;;4926178;29;20407;-75
2021/06/19 05:30:25;;;;;;;3.03;2.83;;;25.00;99.90;;;;;;4915739;29;20413;-75
2021/06/19 05:32:51;;;;;;;3.53;2.83;;;25.20;99.90;;;;;;4907400;29;20405;-74
2021/06/19 05:35:16;;;;;;;2.88;2.67;;;25.30;99.90;;;;;;4891882;29;20413;-74
2021/06/19 05:37:42;;;;;;;3.20;2.90;;;25.40;99.90;;;;;;4899013;29;20481;-74
2021/06/19 05:40:08;;;;;;;2.60;2.40;;;25.60;99.90;;;;;;4913471;29;20768;-78
2021/06/19 05:42:34;;;;;;;3.60;2.63;;;25.70;99.90;;;;;;4920288;29;20524;-79
2021/06/19 05:45:00;;;;;;;2.53;2.33;;;25.90;99.90;;;;;;4913002;29;20906;-75
2021/06/19 05:47:26;;;;;;;2.75;2.53;;;26.20;99.90;;;;;;4908559;29;20858;-78
2021/06/19 05:49:52;;;;;;;2.60;2.40;;;26.30;99.90;;;;;;4935536;29;20425;-78
2021/06/19 05:52:18;;;;;;;2.47;2.27;;;26.40;99.90;;;;;;4914191;29;20393;-78
2021/06/19 05:54:44;;;;;;;3.00;2.80;;;26.50;99.90;;;;;;4912896;29;20414;-78
2021/06/19 05:57:10;;;;;;;2.70;2.50;;;26.60;99.90;;;;;;4905150;28;20456;-76
2021/06/19 05:59:37;;;;;;;2.67;2.47;;;26.70;99.90;;;;;;4905768;29;20437;-76
2021/06/19 06:02:04;;;;;;;2.50;2.30;;;26.90;99.90;;;;;;4941414;29;20502;-76
2021/06/19 06:04:33;;;;;;;2.50;2.30;;;26.90;99.90;;;;;;4885316;29;20406;-76
2021/06/19 06:06:59;;;;;;;2.77;2.40;;;27.00;99.90;;;;;;4905937;29;20528;-75
2021/06/19 06:09:25;;;;;;;2.97;2.60;;;27.10;99.90;;;;;;4914258;29;20506;-79
2021/06/19 06:11:50;;;;;;;3.30;2.60;;;27.20;99.90;;;;;;4913398;29;20466;-78
2021/06/19 06:14:16;;;;;;;3.13;2.83;;;27.50;99.90;;;;;;4909109;29;20415;-79
2021/06/19 06:16:42;;;;;;;4.90;2.45;;;27.60;99.90;;;;;;4931715;28;20413;-77
2021/06/19 06:19:08;;;;;;;2.13;2.03;;;27.70;99.90;;;;;;4896358;29;20486;-78
2021/06/19 06:21:34;;;;;;;2.28;2.13;;;27.80;99.90;;;;;;4897629;29;20390;-78
2021/06/19 06:23:59;;;;;;;2.63;2.40;;;27.80;99.90;;;;;;4895813;29;20446;-77
2021/06/19 06:26:25;;;;;;;3.10;2.40;;;27.90;99.90;;;;;;4900587;29;20433;-78
2021/06/19 06:28:51;;;;;;;2.50;2.30;;;28.10;99.90;;;;;;4898092;29;20408;-78
2021/06/19 06:31:16;;;;;;;3.88;2.60;;;28.30;99.90;;;;;;4896063;29;20410;-78
2021/06/19 06:33:42;;;;;;;2.33;2.00;;;28.40;99.90;;;;;;4942575;29;20433;-78
2021/06/19 06:36:08;;;;;;;3.87;3.00;;;28.50;99.90;;;;;;4912713;29;20804;-79
2021/06/19 06:38:33;;;;;;;2.50;2.30;;;28.70;99.90;;;;;;4914960;29;20409;-79
2021/06/19 06:40:59;;;;;;;2.38;2.17;;;28.80;99.90;;;;;;4912663;29;20483;-79
2021/06/19 06:43:25;;;;;;;2.10;2.00;;;29.20;99.90;;;;;;4927069;29;20406;-78
2021/06/19 06:45:51;;;;;;;2.55;2.35;;;29.40;99.90;;;;;;4912625;29;20444;-78
2021/06/19 06:48:17;;;;;;;2.60;2.40;;;29.60;99.90;;;;;;4912982;29;20435;-79
2021/06/19 06:50:43;;;;;;;2.33;2.13;;;29.50;99.90;;;;;;4904757;29;20611;-76
2021/06/19 06:53:08;;;;;;;2.33;2.22;;;29.50;99.90;;;;;;4913874;29;20449;-76
2021/06/19 06:55:34;;;;;;;2.60;2.40;;;29.80;99.90;;;;;;4928902;29;20406;-75
2021/06/19 06:58:00;;;;;;;2.63;2.40;;;29.80;99.90;;;;;;4877150;28;20436;-76
2021/06/19 07:00:26;;;;;;;2.25;2.05;;;30.00;99.90;;;;;;4896531;28;20553;-77
2021/06/19 07:02:52;;;;;;;2.70;2.50;;;30.10;99.90;;;;;;4908220;29;20419;-79
2021/06/19 07:05:17;;;;;;;3.03;2.72;;;30.30;99.90;;;;;;4883575;29;20410;-79
2021/06/19 07:07:43;;;;;;;2.73;2.30;;;30.50;99.90;;;;;;4926447;28;20406;-77
2021/06/19 07:10:13;;;;;;;2.43;2.23;;;30.60;99.90;;;;;;4896546;29;20471;-80
2021/06/19 07:12:42;;;;;;;2.33;2.22;;;30.60;99.90;;;;;;4869658;29;20428;-80
2021/06/19 07:15:08;;;;;;;3.03;2.80;;;30.60;99.90;;;;;;4947677;28;20897;-77
2021/06/19 07:17:34;;;;;;;2.30;2.20;;;30.70;99.90;;;;;;4919835;29;20842;-77
2021/06/19 07:20:02;;;;;;;2.50;2.30;;;30.70;99.90;;;;;;4920736;29;20412;-79
2021/06/19 07:22:29;;;;;;;2.20;2.10;;;30.90;99.90;;;;;;4910477;29;20402;-80
2021/06/19 07:24:54;;;;;;;2.60;2.40;;;31.00;99.90;;;;;;4897311;29;20452;-82
2021/06/19 07:27:21;;;;;;;2.30;2.20;;;31.10;99.10;;;;;;4896967;29;20398;-80
2021/06/19 07:29:47;;;;;;;3.33;2.53;;;31.20;98.00;;;;;;4905479;29;20405;-82
2021/06/19 07:32:13;;;;;;;2.83;2.63;;;31.30;98.50;;;;;;4934531;29;20405;-83
2021/06/19 07:34:39;;;;;;;3.20;2.42;;;31.50;96.80;;;;;;4904220;29;20426;-81
2021/06/19 07:37:04;;;;;;;2.92;2.47;;;31.60;95.80;;;;;;4905636;29;20439;-81
2021/06/19 07:39:30;;;;;;;2.60;2.40;;;31.50;95.30;;;;;;4931804;29;20425;-79
2021/06/19 07:41:57;;;;;;;2.63;2.43;;;31.50;95.60;;;;;;4925285;29;20469;-84
2021/06/19 07:44:23;;;;;;;2.60;2.23;;;31.80;96.20;;;;;;4907260;29;20414;-84
2021/06/19 07:46:50;;;;;;;2.20;2.10;;;31.90;96.60;;;;;;4886448;29;20546;-83
2021/06/19 07:49:17;;;;;;;3.72;2.35;;;32.20;96.90;;;;;;4917969;29;20398;-80
2021/06/19 07:51:42;;;;;;;2.70;2.50;;;32.50;95.20;;;;;;4901591;28;20411;-83
2021/06/19 07:54:08;;;;;;;3.60;2.63;;;32.70;94.70;;;;;;4908814;29;20414;-84
2021/06/19 07:56:34;;;;;;;2.70;2.50;;;32.90;93.10;;;;;;4922510;29;20930;-83
2021/06/19 07:58:59;;;;;;;3.35;3.05;;;33.00;91.50;;;;;;4894859;29;20483;-84
2021/06/19 08:01:25;;;;;;;2.70;2.50;;;33.10;92.10;;;;;;4939041;29;20412;-82
2021/06/19 08:03:51;;;;;;;2.70;2.50;;;33.20;90.20;;;;;;4915185;29;20406;-83
2021/06/19 08:06:17;;;;;;;2.70;2.50;;;33.10;90.10;;;;;;4897357;29;20420;-85
2021/06/19 08:08:45;;;;;;;2.78;2.50;;;33.10;90.20;;;;;;4903961;29;20774;-83
2021/06/19 08:11:11;;;;;;;3.00;2.30;;;33.20;89.90;;;;;;4914156;29;20426;-84
2021/06/19 08:13:37;;;;;;;2.72;2.53;;;33.50;90.80;;;;;;4891505;29;20420;-83
2021/06/19 08:16:05;;;;;;;2.70;2.50;;;33.70;90.00;;;;;;4901148;28;20458;-84
2021/06/19 08:18:31;;;;;;;4.38;2.55;;;33.90;86.90;;;;;;4900456;28;20545;-83
2021/06/19 08:20:57;;;;;;;2.35;2.25;;;33.90;87.90;;;;;;4913096;29;20779;-81
2021/06/19 08:23:22;;;;;;;2.80;2.60;;;34.30;90.60;;;;;;4915777;29;20436;-84
2021/06/19 08:25:48;;;;;;;3.10;2.80;;;34.40;84.30;;;;;;4938499;29;20406;-84
2021/06/19 08:28:14;;;;;;;2.83;2.63;;;34.80;86.00;;;;;;4921432;29;20422;-84
2021/06/19 08:30:39;;;;;;;3.10;2.80;;;34.80;84.30;;;;;;4886099;29;20409;-85
2021/06/19 08:33:05;;;;;;;2.90;2.70;;;35.10;82.90;;;;;;4901655;29;20423;-86
2021/06/19 08:35:31;;;;;;;2.60;2.40;;;35.20;80.60;;;;;;4894764;29;20391;-84
2021/06/19 08:37:57;;;;;;;2.95;2.65;;;35.40;81.60;;;;;;4906880;29;20419;-84
2021/06/19 08:40:22;;;;;;;2.30;2.10;;;35.60;80.10;;;;;;4900384;29;20399;-84
2021/06/19 08:42:48;;;;;;;2.67;2.47;;;35.60;79.20;;;;;;4933040;29;20481;-86
2021/06/19 08:45:14;;;;;;;2.47;2.28;;;35.90;77.40;;;;;;4883232;29;21037;-88
2021/06/19 08:47:40;;;;;;;2.60;2.40;;;36.10;80.90;;;;;;4916875;29;20402;-87
2021/06/19 08:50:13;;;;;;;2.70;2.50;;;36.20;77.50;;;;;;4897807;28;20406;-86
2021/06/19 08:52:39;;;;;;;2.83;2.57;;;36.50;75.00;;;;;;4923955;29;20475;-85
2021/06/19 08:55:08;;;;;;;2.53;2.33;;;36.80;73.90;;;;;;4894241;29;20430;-83
2021/06/19 08:57:34;;;;;;;2.50;2.30;;;36.70;72.00;;;;;;4899885;29;20498;-84
2021/06/19 08:59:59;;;;;;;2.50;2.30;;;36.60;72.60;;;;;;4894572;29;20538;-82
2021/06/19 09:02:25;;;;;;;2.55;2.35;;;36.80;72.90;;;;;;4918368;29;20411;-84
2021/06/19 09:05:05;;;;;;;2.97;2.63;;;36.60;72.80;;;;;;4934805;29;20506;-83
2021/06/19 09:07:33;;;;;;;3.50;2.58;;;36.80;70.10;;;;;;4933543;28;20457;-84
2021/06/19 09:10:15;;;;;;;2.80;2.47;;;36.80;69.70;;;;;;4918608;29;20407;-83
2021/06/19 09:12:52;;;;;;;5.10;2.42;;;37.30;68.70;;;;;;4913972;29;20806;-84
2021/06/19 09:15:24;;;;;;;2.58;2.38;;;37.80;67.50;;;;;;4913897;29;20399;-82
2021/06/19 09:18:23;;;;;;;2.47;2.27;;;37.70;64.60;;;;;;4912309;29;20403;-80
2021/06/19 09:20:58;;;;;;;2.60;2.40;;;37.90;65.20;;;;;;4895151;29;20400;-84
2021/06/19 09:23:35;;;;;;;2.70;2.50;;;38.20;65.10;;;;;;4933783;28;20418;-84
2021/06/19 09:26:21;;;;;;;3.00;2.70;;;38.20;64.70;;;;;;4900247;29;20396;-82
2021/06/19 09:28:56;;;;;;;2.72;2.53;;;38.20;62.80;;;;;;4933632;29;20473;-79
2021/06/19 09:31:40;;;;;;;2.55;2.35;;;38.30;60.50;;;;;;4922765;29;20389;-82
2021/06/19 09:34:07;;;;;;;4.80;2.40;;;38.30;61.60;;;;;;4916199;29;20493;-82
2021/06/19 09:36:52;;;;;;;2.63;2.42;;;38.50;61.60;;;;;;4913534;29;20495;-84
2021/06/19 09:39:23;;;;;;;2.70;2.50;;;38.80;64.30;;;;;;4910669;29;20421;-81
2021/06/19 09:41:53;;;;;;;3.65;2.78;;;39.10;63.10;;;;;;4914489;29;20907;-81
2021/06/19 09:44:32;;;;;;;2.33;2.13;;;39.50;59.90;;;;;;4908113;29;20449;-81
2021/06/19 09:46:58;;;;;;;2.70;2.50;;;39.50;59.10;;;;;;4923968;29;20405;-83
2021/06/19 09:49:30;;;;;;;2.40;2.20;;;39.60;58.50;;;;;;4907717;29;20420;-79
2021/06/19 09:51:55;;;;;;;2.60;2.40;;;40.10;57.30;;;;;;4892889;28;20846;-79
2021/06/19 09:54:21;;;;;;;2.45;2.25;;;40.20;55.80;;;;;;4918760;29;20509;-79
2021/06/19 09:56:59;;;;;;;2.65;2.45;;;40.20;56.20;;;;;;4916831;29;20409;-79
2021/06/19 09:59:33;;;;;;;4.15;2.58;;;40.10;54.60;;;;;;4891415;29;20417;-80
2021/06/19 10:02:00;;;;;;;2.50;2.30;;;40.20;57.30;;;;;;4906645;29;20412;-79
2021/06/19 10:04:28;;;;;;;2.45;2.25;;;40.30;55.10;;;;;;4913339;29;20567;-79
2021/06/19 10:06:58;;;;;;;2.90;2.60;;;40.40;53.70;;;;;;4905373;29;20498;-83
2021/06/19 10:09:26;;;;;;;2.30;2.10;;;40.30;52.40;;;;;;4909352;29;20497;-80
2021/06/19 10:11:53;;;;;;;2.60;2.40;;;40.40;53.60;;;;;;4903817;29;20410;-80
2021/06/19 10:14:21;;;;;;;2.55;2.35;;;40.10;52.40;;;;;;4940571;29;20426;-80
2021/06/19 10:16:49;;;;;;;2.50;2.30;;;40.30;54.10;;;;;;4923526;28;20947;-80
2021/06/19 10:19:21;;;;;;;2.67;2.47;;;40.60;54.70;;;;;;4884145;28;20425;-82
2021/06/19 10:21:55;;;;;;;2.53;2.38;;;40.80;51.30;;;;;;4907102;28;20469;-81
2021/06/19 10:24:22;;;;;;;2.55;2.35;;;40.90;54.10;;;;;;4916966;28;20457;-80
2021/06/19 10:26:49;;;;;;;3.20;2.53;;;41.30;52.20;;;;;;4924732;29;20482;-84
2021/06/19 10:29:16;;;;;;;2.60;2.40;;;41.80;51.90;;;;;;4913296;28;20456;-84
2021/06/19 10:31:52;;;;;;;2.95;2.65;;;42.00;49.70;;;;;;4907905;29;21009;-83
2021/06/19 10:34:28;;;;;;;2.50;2.30;;;42.10;50.50;;;;;;4902992;29;20446;-81
2021/06/19 10:36:56;;;;;;;2.47;2.30;;;42.20;49.30;;;;;;4916523;29;20494;-83
2021/06/19 10:39:41;;;;;;;2.60;2.40;;;42.30;48.90;;;;;;4899804;29;20402;-81
2021/06/19 10:42:16;;;;;;;2.20;2.10;;;42.40;49.80;;;;;;4929465;29;20414;-77
2021/06/19 10:44:59;;;;;;;2.00;1.90;;;42.50;49.50;;;;;;4919059;29;20409;-78
2021/06/19 10:47:27;;;;;;;2.40;2.20;;;42.80;48.30;;;;;;4914099;29;20433;-79
2021/06/19 10:49:54;;;;;;;2.35;2.15;;;43.20;47.20;;;;;;4884948;29;20401;-79
2021/06/19 10:52:37;;;;;;;2.20;2.10;;;43.30;45.90;;;;;;4911841;29;20410;-79
2021/06/19 10:55:09;;;;;;;2.40;2.20;;;43.50;46.30;;;;;;4920560;29;22446;-80
2021/06/19 10:57:46;;;;;;;2.20;2.10;;;43.40;44.20;;;;;;4943843;29;20422;-82
2021/06/19 11:00:43;;;;;;;2.50;2.20;;;43.30;46.50;;;;;;4926816;29;20495;-81
2021/06/19 11:03:09;;;;;;;2.30;2.10;;;43.30;44.80;;;;;;4924070;29;22132;-81
2021/06/19 11:05:44;;;;;;;2.23;2.13;;;43.40;47.10;;;;;;4931474;29;20463;-83
2021/06/19 11:08:14;;;;;;;2.00;1.90;;;43.20;44.50;;;;;;4918604;29;20828;-82
2021/06/19 11:13:30;;;;;;;2.40;2.20;;;43.80;44.50;;;;;;4942566;28;20444;-78
2021/06/19 11:16:00;;;;;;;2.40;2.20;;;44.10;44.80;;;;;;4905102;29;20783;-82
2021/06/19 11:18:48;;;;;;;2.53;2.33;;;44.30;42.00;;;;;;4917080;28;20413;-79
2021/06/19 11:21:23;;;;;;;2.53;2.35;;;44.60;43.10;;;;;;4909728;29;20393;-80
2021/06/19 11:24:04;;;;;;;2.65;2.45;;;44.50;42.40;;;;;;4887133;29;20409;-78
2021/06/19 11:27:01;;;;;;;2.60;2.40;;;44.60;40.90;;;;;;4915729;29;20461;-80
2021/06/19 11:29:43;;;;;;;3.13;2.15;;;44.60;42.40;;;;;;4926204;29;20406;-78
2021/06/19 11:32:32;;;;;;;2.70;2.50;;;44.20;40.30;;;;;;4907895;29;20482;-79
2021/06/19 11:35:03;;;;;;;2.72;2.53;;;44.40;42.20;;;;;;4905259;29;20425;-79
2021/06/19 11:37:51;;;;;;;2.58;2.38;;;44.50;40.30;;;;;;4901823;29;20409;-78
2021/06/19 11:40:30;;;;;;;2.50;2.35;;;43.50;41.70;;;;;;4046291;28;10001511;-78
2021/06/19 11:42:56;;;;;;;3.58;2.40;;;43.00;40.70;;;;;;4892757;29;20443;-80
2021/06/19 11:45:23;;;;;;;3.20;2.40;;;42.80;41.50;;;;;;4895162;29;20419;-82
2021/06/19 11:48:19;;;;;;;2.40;2.20;;;43.00;41.10;;;;;;4901947;28;20442;-83
2021/06/19 11:50:46;;;;;;;2.50;2.30;;;43.00;40.00;;;;;;4892091;29;20436;-80
2021/06/19 11:53:32;;;;;;;3.63;2.50;;;43.00;41.20;;;;;;4944447;29;20418;-80
2021/06/19 11:56:18;;;;;;;2.50;2.35;;;42.90;40.10;;;;;;4909876;29;20583;-80
2021/06/19 11:58:46;;;;;;;2.45;2.35;;;42.60;40.30;;;;;;4924673;29;20458;-79
2021/06/19 12:01:13;;;;;;;2.35;2.20;;;42.50;39.90;;;;;;4895691;29;20429;-78
2021/06/19 12:03:40;;;;;;;2.30;2.20;;;42.80;43.80;;;;;;4912208;29;20405;-80
2021/06/19 12:06:05;;;;;;;6.30;2.45;;;43.50;42.60;;;;;;4896515;29;20402;-78
2021/06/19 12:08:32;;;;;;;3.28;2.38;;;43.30;38.60;;;;;;4888546;28;20945;-79
2021/06/19 12:11:00;;;;;;;2.70;2.50;;;43.20;41.20;;;;;;4898358;29;20473;-81
2021/06/19 12:13:44;;;;;;;2.53;2.33;;;43.20;40.40;;;;;;4026944;29;10000903;-82
2021/06/19 12:16:11;;;;;;;2.53;2.33;;;43.60;41.80;;;;;;4883116;29;20477;-78
2021/06/19 12:18:38;;;;;;;2.50;2.30;;;43.70;41.00;;;;;;4915591;29;20431;-79
2021/06/19 12:21:10;;;;;;;2.47;2.28;;;44.00;43.20;;;;;;4882651;29;20396;-78
2021/06/19 12:23:36;;;;;;;2.37;2.20;;;44.60;40.90;;;;;;4918167;29;20408;-78
2021/06/19 12:26:09;;;;;;;2.00;1.90;;;44.80;37.70;;;;;;4917374;28;20476;-77
2021/06/19 12:28:38;;;;;;;2.58;2.38;;;44.80;42.40;;;;;;4932683;29;20413;-77
2021/06/19 12:31:07;;;;;;;3.80;2.20;;;44.60;39.10;;;;;;4924752;29;20434;-76
2021/06/19 12:33:33;;;;;;;2.60;2.40;;;45.00;39.90;;;;;;4897562;29;20432;-76
2021/06/19 12:36:00;;;;;;;2.40;2.20;;;45.20;38.90;;;;;;4909271;29;20394;-79
2021/06/19 12:38:28;;;;;;;2.80;2.60;;;45.60;42.20;;;;;;4905044;29;20403;-79
2021/06/19 12:40:55;;;;;;;2.78;2.58;;;45.40;37.90;;;;;;4901748;29;20397;-79
2021/06/19 12:43:22;;;;;;;2.40;2.20;;;45.50;40.10;;;;;;4926152;29;20428;-80
2021/06/19 12:45:49;;;;;;;2.40;2.30;;;45.70;38.50;;;;;;4933596;28;20437;-79
2021/06/19 12:48:21;;;;;;;4.45;2.53;;;45.80;38.30;;;;;;4921971;29;20411;-79
2021/06/19 12:50:47;;;;;;;2.80;2.60;;;45.60;37.70;;;;;;4935806;29;20405;-80
2021/06/19 12:53:14;;;;;;;2.83;2.63;;;45.40;36.70;;;;;;4911364;29;20509;-80